Terminal Aerodrome Forecast
Issued by NWS

Home | Current Version | Previous Version | Text Only | Print | Product List | Glossary On
Versions: 1 2 3 4 5 6 7 8 9 10 11 12 13
000
FTUS42 TJSJ 231720
TAFNCM
TAF
TNCM 231720Z 2318/2418 10011KT P6SM VCSH SCT018 BKN040
     FM232300 09008KT P6SM FEW019 SCT050
     FM240400 08006KT P6SM VCSH SCT018 SCT035
     FM241450 12011KT P6SM SCT022=

USA.gov is the U.S. government's official web portal to all federal, state and local government web resources and services.